createdAt,value
2019-02-14T12:15:25.215Z,21.90
2019-02-14T12:17:09.643Z,22.00
2019-02-14T12:18:54.069Z,22.00
2019-02-14T12:20:38.498Z,22.10
2019-02-14T12:22:22.922Z,22.20
2019-02-14T12:24:09.522Z,22.20
2019-02-14T12:25:53.938Z,22.30
2019-02-14T12:27:38.372Z,22.40
2019-02-14T12:29:22.772Z,22.40
2019-02-14T12:31:07.200Z,22.50
2019-02-14T12:32:51.599Z,22.60
2019-02-14T12:34:36.028Z,22.60
2019-02-14T12:36:20.477Z,22.70
2019-02-14T12:38:05.066Z,22.70
2019-02-14T12:39:49.602Z,22.70
2019-02-14T12:41:34.087Z,22.80
2019-02-14T12:43:18.583Z,22.80
2019-02-14T12:45:03.088Z,22.80
2019-02-14T12:46:47.514Z,22.80
2019-02-14T12:48:31.935Z,22.90
2019-02-14T12:50:16.341Z,22.90
2019-02-14T12:52:00.764Z,22.90
2019-02-14T12:53:45.163Z,22.90
2019-02-14T12:55:29.591Z,23.00
2019-02-14T12:57:13.991Z,23.00
2019-02-14T12:58:58.418Z,23.00
2019-02-14T13:00:42.819Z,23.10
2019-02-14T13:02:27.246Z,23.10
2019-02-14T13:04:11.646Z,23.00
2019-02-14T13:05:56.293Z,23.00
2019-02-14T13:07:40.683Z,23.10
2019-02-14T13:09:25.199Z,23.00
2019-02-14T13:11:09.628Z,23.10
2019-02-14T13:12:54.052Z,23.10
2019-02-14T13:14:38.478Z,23.10
2019-02-14T13:16:22.966Z,23.10
2019-02-14T13:18:07.396Z,23.20
2019-02-14T13:19:51.818Z,23.20
2019-02-14T13:21:36.248Z,23.20
2019-02-14T13:23:20.647Z,23.20
2019-02-14T13:25:08.118Z,23.30
2019-02-14T13:26:52.546Z,23.30
2019-02-14T13:28:37.032Z,23.30
2019-02-14T13:30:25.927Z,23.30
2019-02-14T13:32:10.373Z,23.30
2019-02-14T13:33:54.790Z,23.30
2019-02-14T13:35:39.210Z,23.40
2019-02-14T13:37:23.722Z,23.40
2019-02-14T13:39:08.123Z,23.40
2019-02-14T13:40:54.595Z,23.40
2019-02-14T13:42:38.645Z,23.40
2019-02-14T13:44:23.072Z,23.40
2019-02-14T13:46:07.565Z,23.50
2019-02-14T13:47:52.967Z,23.50
2019-02-14T13:49:37.394Z,23.50
2019-02-14T13:51:21.824Z,23.50
2019-02-14T13:53:06.257Z,23.50
2019-02-14T13:54:50.655Z,23.50
2019-02-14T13:56:35.082Z,23.50
2019-02-14T13:58:19.484Z,23.50
2019-02-14T14:00:09.669Z,23.50
2019-02-14T14:01:54.070Z,23.50
2019-02-14T14:03:38.498Z,23.60
2019-02-14T14:05:22.908Z,23.60
2019-02-14T14:07:07.330Z,23.60
2019-02-14T14:08:51.776Z,23.70
2019-02-14T14:10:36.202Z,23.70
2019-02-14T14:12:21.376Z,23.70
2019-02-14T14:14:06.868Z,23.80
2019-02-14T14:15:51.478Z,23.80
2019-02-14T14:17:35.987Z,23.80
2019-02-14T14:19:20.414Z,23.80
2019-02-14T14:21:04.842Z,23.90
2019-02-14T14:22:49.286Z,23.90
2019-02-14T14:24:33.710Z,23.90
2019-02-14T14:26:18.146Z,23.90
2019-02-14T14:28:02.583Z,23.90
2019-02-14T14:29:47.013Z,23.90
2019-02-14T14:31:31.418Z,24.00
2019-02-14T14:33:15.845Z,24.00
2019-02-14T14:35:00.247Z,24.00
2019-02-14T14:36:44.671Z,24.00
2019-02-14T14:38:29.075Z,24.00
2019-02-14T14:40:17.658Z,24.00
2019-02-14T14:42:03.426Z,24.00
2019-02-14T14:43:55.456Z,24.10
2019-02-14T14:45:50.601Z,24.10
2019-02-14T14:47:35.030Z,24.10
2019-02-14T14:49:19.463Z,24.10
2019-02-14T14:51:03.891Z,24.10
2019-02-14T14:52:48.617Z,24.10
2019-02-14T14:54:33.530Z,24.10
2019-02-14T14:56:18.394Z,24.20
2019-02-14T14:58:03.351Z,24.20
2019-02-14T14:59:48.217Z,24.00
2019-02-14T15:01:34.690Z,23.90
2019-02-14T15:03:19.576Z,23.90
2019-02-14T15:05:04.667Z,24.00
2019-02-14T15:06:49.458Z,24.00
2019-02-14T15:08:34.150Z,24.10
2019-02-14T15:10:18.994Z,24.00
2019-02-14T15:12:03.650Z,24.10
2019-02-14T15:13:48.246Z,24.10
2019-02-14T15:15:32.666Z,24.10
